This is the latest recevied weather packets stored in our database for station/object OE-1066. If no packets are shown the sender has not sent any weather packets the latest 10 day(s).
| Time | Temp. | Humidity | Pressure | Rain* | Wind** | Luminosity | Snow |
|---|---|---|---|---|---|---|---|
| 1788009070 | 25° C | 44% | 1014.7 hPa | - | - | - | - |
| 1788007270 | 24.44° C | 46% | 1014.8 hPa | - | - | - | - |
| 1788005470 | 23.89° C | 48% | 1015.9 hPa | - | - | - | - |
| 1788003670 | 23.89° C | 48% | 1015.9 hPa | - | - | - | - |
| 1788001870 | 23.33° C | 49% | 1016 hPa | - | - | - | - |
| 1788000070 | 23.33° C | 49% | 1016 hPa | - | - | - | - |
| 1787998270 | 22.78° C | 49% | 1016.1 hPa | - | - | - | - |
| 1787996470 | 22.22° C | 52% | 1017.3 hPa | - | - | - | - |
| 1787994670 | 21.67° C | 57% | 1017.4 hPa | - | - | - | - |
| 1787992869 | 20° C | 61% | 1017.6 hPa | - | - | - | - |
| 1787991070 | 19.44° C | 64% | 1017.7 hPa | - | - | - | - |
| 1787989270 | 18.33° C | 67% | 1017.9 hPa | - | - | - | - |
| 1787987470 | 17.78° C | 69% | 1018 hPa | - | - | - | - |
| 1787985670 | 17.22° C | 70% | 1018.1 hPa | - | - | - | - |
| 1787983870 | 17.22° C | 70% | 1017 hPa | - | - | - | - |
| 1787982070 | 16.67° C | 71% | 1017.1 hPa | - | - | - | - |
| 1787980270 | 17.22° C | 69% | 1017.1 hPa | - | - | - | - |
| 1787978470 | 17.22° C | 69% | 1017.1 hPa | - | - | - | - |
| 1787976670 | 17.22° C | 70% | 1017.1 hPa | - | - | - | - |
| 1787973070 | 16.67° C | 72% | 1017.1 hPa | - | - | - | - |
| 1787971270 | 16.67° C | 73% | 1017.1 hPa | - | - | - | - |
| 1787969470 | 17.22° C | 71% | 1017.1 hPa | - | - | - | - |
| 1787967670 | 16.67° C | 74% | 1018.2 hPa | - | - | - | - |
| 1787965870 | 16.11° C | 79% | 1018.3 hPa | - | - | - | - |
| 1787964070 | 16.11° C | 80% | 1018.3 hPa | - | - | - | - |
* Rain since midnight (hover to see other rain measurements)
** Current wind speed in m/s (hover to see current wind gust speed)